createdAt,value
2022-10-18T00:00:11.866Z,60.08
2022-10-18T00:02:39.421Z,50.38
2022-10-18T00:05:07.319Z,52.55
2022-10-18T00:07:34.875Z,68.60
2022-10-18T00:10:05.041Z,61.63
2022-10-18T00:12:34.110Z,59.90
2022-10-18T00:15:01.718Z,55.63
2022-10-18T00:17:29.624Z,56.45
2022-10-18T00:19:57.557Z,54.33
2022-10-18T00:22:25.405Z,62.78
2022-10-18T00:24:53.220Z,58.15
2022-10-18T00:27:22.093Z,64.03
2022-10-18T00:29:53.223Z,78.63
2022-10-18T00:32:20.999Z,75.55
2022-10-18T00:34:48.732Z,81.85
2022-10-18T00:37:16.665Z,75.25
2022-10-18T00:39:44.318Z,279.80
2022-10-18T00:42:13.044Z,184.40
2022-10-18T00:45:06.026Z,110.55
2022-10-18T00:47:34.675Z,129.82
2022-10-18T00:50:05.770Z,111.82
2022-10-18T00:52:37.628Z,416.48
2022-10-18T00:55:06.599Z,389.90
2022-10-18T00:57:34.769Z,341.85
2022-10-18T01:00:07.777Z,337.33
2022-10-18T01:02:35.299Z,293.77
2022-10-18T01:05:02.840Z,82.05
2022-10-18T01:07:51.671Z,83.95
2022-10-18T01:10:30.528Z,353.02
2022-10-18T01:13:11.182Z,124.60
2022-10-18T01:15:59.265Z,427.05
2022-10-18T01:18:38.440Z,63.10
2022-10-18T01:21:16.089Z,65.75
2022-10-18T01:24:08.760Z,87.43
2022-10-18T01:26:55.442Z,90.45
2022-10-18T01:29:33.924Z,87.60
2022-10-18T01:32:05.659Z,92.18
2022-10-18T01:34:37.101Z,84.60
2022-10-18T01:37:09.417Z,92.15
2022-10-18T01:39:41.377Z,159.68
2022-10-18T01:42:13.220Z,597.58
2022-10-18T01:44:42.578Z,267.35
2022-10-18T01:47:14.237Z,215.05
2022-10-18T01:49:41.841Z,197.40
2022-10-18T01:52:11.115Z,229.35
2022-10-18T01:54:41.713Z,227.85
2022-10-18T01:57:18.785Z,669.85
2022-10-18T01:59:57.252Z,385.08
2022-10-18T02:02:39.923Z,215.32
2022-10-18T02:05:15.409Z,182.25
2022-10-18T02:07:55.323Z,208.63
2022-10-18T02:10:37.232Z,207.23
2022-10-18T02:13:04.863Z,220.32
2022-10-18T02:15:35.714Z,182.85
2022-10-18T02:18:09.295Z,302.10
2022-10-18T02:20:39.027Z,292.85
2022-10-18T02:23:09.584Z,568.75
2022-10-18T02:25:37.939Z,907.83
2022-10-18T02:28:06.009Z,1145.30
2022-10-18T02:30:41.935Z,966.17
2022-10-18T02:33:16.078Z,197.80
2022-10-18T02:35:48.515Z,737.35
2022-10-18T02:38:18.610Z,503.42
2022-10-18T02:40:46.130Z,491.35
2022-10-18T02:43:15.207Z,756.22
2022-10-18T02:45:42.842Z,718.80
2022-10-18T02:48:11.857Z,754.88
2022-10-18T02:50:39.372Z,568.83
2022-10-18T02:53:07.333Z,583.40
2022-10-18T02:55:34.827Z,417.85
2022-10-18T02:58:02.339Z,461.58
2022-10-18T03:00:29.833Z,682.25
2022-10-18T03:02:57.340Z,426.50
2022-10-18T03:05:26.215Z,505.27
2022-10-18T03:07:53.850Z,360.73
2022-10-18T03:10:21.356Z,441.88
2022-10-18T03:12:48.890Z,356.60
2022-10-18T03:15:16.435Z,581.13
2022-10-18T03:17:43.919Z,602.67
2022-10-18T03:20:12.431Z,490.95
2022-10-18T03:22:41.313Z,558.70
2022-10-18T03:25:09.196Z,513.95
2022-10-18T03:27:36.675Z,513.92
2022-10-18T03:30:05.692Z,383.77
2022-10-18T03:32:33.473Z,285.77
2022-10-18T03:35:01.276Z,588.92
2022-10-18T03:37:28.826Z,379.70
2022-10-18T03:39:57.704Z,284.58
2022-10-18T03:42:25.308Z,324.08
2022-10-18T03:44:52.835Z,419.90
2022-10-18T03:47:20.407Z,312.40
2022-10-18T03:49:49.156Z,314.00
2022-10-18T03:52:17.595Z,513.42
2022-10-18T03:54:45.086Z,359.00
2022-10-18T03:57:13.977Z,464.98
2022-10-18T03:59:41.535Z,480.83
2022-10-18T04:02:09.074Z,467.60
2022-10-18T04:04:36.596Z,513.58
2022-10-18T04:07:04.151Z,416.25
2022-10-18T04:09:31.750Z,436.85
2022-10-18T04:11:59.280Z,650.25
2022-10-18T04:14:28.294Z,480.98
2022-10-18T04:16:55.804Z,708.50
2022-10-18T04:19:23.289Z,611.63
2022-10-18T04:21:50.822Z,665.72
2022-10-18T04:24:18.600Z,655.03
2022-10-18T04:26:46.134Z,565.47
2022-10-18T04:29:13.684Z,591.28
2022-10-18T04:31:42.503Z,767.13
2022-10-18T04:34:10.543Z,472.92
2022-10-18T04:36:38.043Z,512.45
2022-10-18T04:39:05.560Z,492.42
2022-10-18T04:41:33.062Z,542.15
2022-10-18T04:44:00.584Z,452.73
2022-10-18T04:46:28.074Z,724.97
2022-10-18T04:48:56.953Z,560.72
2022-10-18T04:51:24.478Z,595.72
2022-10-18T04:53:51.949Z,564.78
2022-10-18T04:56:19.459Z,474.92
2022-10-18T04:58:47.137Z,484.10
2022-10-18T05:01:14.683Z,493.17
2022-10-18T05:03:42.228Z,390.58
2022-10-18T05:06:11.108Z,234.43
2022-10-18T05:08:38.688Z,423.17
2022-10-18T05:11:06.498Z,325.15
2022-10-18T05:13:34.127Z,447.13
2022-10-18T05:16:02.484Z,339.40
2022-10-18T05:18:29.992Z,375.77
2022-10-18T05:20:58.061Z,426.02
2022-10-18T05:23:27.006Z,381.80
2022-10-18T05:25:55.031Z,440.45
2022-10-18T05:28:41.022Z,371.23
2022-10-18T05:31:11.520Z,357.30
2022-10-18T05:33:39.348Z,277.40
2022-10-18T05:36:07.430Z,296.75
2022-10-18T05:38:39.875Z,387.73
2022-10-18T05:41:07.393Z,441.08
2022-10-18T05:43:34.935Z,490.45
2022-10-18T05:46:02.569Z,299.42
2022-10-18T05:48:30.076Z,287.52
2022-10-18T05:50:58.965Z,360.20
2022-10-18T05:53:41.927Z,229.43
2022-10-18T05:56:12.299Z,194.50
2022-10-18T05:58:40.740Z,195.50
2022-10-18T06:01:09.131Z,201.52
2022-10-18T06:03:37.519Z,238.23
2022-10-18T06:06:07.460Z,204.70
2022-10-18T06:08:35.892Z,247.70
2022-10-18T06:11:07.932Z,265.85
2022-10-18T06:13:40.939Z,130.45
2022-10-18T06:16:08.937Z,112.88
2022-10-18T06:18:36.458Z,133.00
2022-10-18T06:21:03.994Z,111.25
2022-10-18T06:23:31.711Z,106.95
2022-10-18T06:26:00.415Z,158.25
2022-10-18T06:28:28.720Z,111.15
2022-10-18T06:30:58.592Z,122.32
2022-10-18T06:33:26.829Z,105.25
2022-10-18T06:35:58.918Z,111.90
2022-10-18T06:38:27.161Z,123.65
2022-10-18T06:40:54.716Z,111.10
2022-10-18T06:43:22.814Z,107.03
2022-10-18T06:45:50.777Z,123.32
2022-10-18T06:50:54.770Z,111.75
2022-10-18T06:53:22.474Z,107.55
2022-10-18T06:55:50.071Z,109.90
2022-10-18T06:58:17.687Z,110.93
2022-10-18T07:00:46.902Z,119.20
2022-10-18T07:03:14.422Z,145.57
2022-10-18T07:05:43.339Z,129.15
2022-10-18T07:08:10.914Z,153.48
2022-10-18T07:10:38.426Z,136.13
2022-10-18T07:13:30.757Z,155.73
2022-10-18T07:16:05.580Z,157.77
2022-10-18T07:18:34.552Z,146.40
2022-10-18T07:21:05.041Z,112.60
2022-10-18T07:23:33.837Z,106.65
2022-10-18T07:26:01.855Z,94.20
2022-10-18T07:28:29.467Z,75.97
2022-10-18T07:30:58.158Z,91.90
2022-10-18T07:33:30.309Z,106.22
2022-10-18T07:36:01.963Z,105.15
2022-10-18T07:38:30.866Z,112.00
2022-10-18T07:40:58.880Z,132.10
2022-10-18T07:43:26.631Z,151.65
2022-10-18T07:45:54.286Z,156.30
2022-10-18T07:48:22.011Z,200.52
2022-10-18T07:50:49.548Z,179.30
2022-10-18T07:53:17.117Z,182.82
2022-10-18T07:55:46.155Z,248.93
2022-10-18T07:58:13.732Z,138.13
2022-10-18T08:00:41.508Z,133.02
2022-10-18T08:03:09.486Z,159.02
2022-10-18T08:05:37.027Z,156.55
2022-10-18T08:08:07.892Z,136.13
2022-10-18T08:10:36.241Z,155.98
2022-10-18T08:13:05.136Z,125.45
2022-10-18T08:15:32.631Z,83.93
2022-10-18T08:18:00.184Z,104.95
2022-10-18T08:20:30.951Z,129.13
2022-10-18T08:23:00.284Z,94.22
2022-10-18T08:25:28.666Z,105.25
2022-10-18T08:27:56.288Z,87.85
2022-10-18T08:30:25.268Z,85.20
2022-10-18T08:32:52.796Z,97.93
2022-10-18T08:35:20.325Z,79.25
2022-10-18T08:37:48.446Z,59.22
2022-10-18T08:40:16.780Z,90.55
2022-10-18T08:43:01.467Z,46.65
2022-10-18T08:45:41.827Z,45.58
2022-10-18T08:48:21.699Z,56.50
2022-10-18T08:50:50.672Z,76.93
2022-10-18T08:53:23.816Z,90.90
2022-10-18T08:55:55.393Z,75.82
2022-10-18T08:58:26.675Z,94.47
2022-10-18T09:01:03.815Z,80.35
2022-10-18T09:03:49.132Z,52.03
2022-10-18T09:06:26.522Z,44.85
2022-10-18T09:09:18.032Z,46.28
2022-10-18T09:12:01.915Z,35.35
2022-10-18T09:14:45.558Z,50.83
2022-10-18T09:17:25.092Z,45.33
2022-10-18T09:20:09.302Z,42.95
2022-10-18T09:22:49.983Z,76.07
2022-10-18T09:25:20.475Z,88.18
2022-10-18T09:27:56.812Z,54.83
2022-10-18T09:30:33.691Z,70.72
2022-10-18T09:33:10.909Z,63.05
2022-10-18T09:35:44.457Z,66.80
2022-10-18T09:38:16.870Z,74.18
2022-10-18T09:40:52.173Z,51.35
2022-10-18T09:43:23.860Z,49.95
2022-10-18T09:45:54.106Z,35.05
2022-10-18T09:48:28.079Z,65.78
2022-10-18T09:51:01.449Z,73.57
2022-10-18T09:53:37.566Z,73.85
2022-10-18T09:56:07.301Z,58.80
2022-10-18T09:58:42.507Z,59.22
2022-10-18T10:01:12.312Z,43.53
2022-10-18T10:03:42.925Z,50.85
2022-10-18T10:06:26.431Z,51.50
2022-10-18T10:09:01.926Z,52.30
2022-10-18T10:11:33.061Z,48.95
2022-10-18T10:14:10.589Z,44.50
2022-10-18T10:16:45.568Z,45.75
2022-10-18T10:19:24.497Z,35.70
2022-10-18T10:21:56.887Z,30.88
2022-10-18T10:24:31.133Z,28.63
2022-10-18T10:27:08.012Z,24.65
2022-10-18T10:29:51.436Z,19.58
2022-10-18T10:32:21.759Z,19.08
2022-10-18T10:34:51.197Z,16.25
2022-10-18T10:37:36.896Z,21.55
2022-10-18T10:40:18.441Z,14.95
2022-10-18T10:43:33.115Z,13.27
2022-10-18T10:46:04.980Z,12.80
2022-10-18T10:48:35.341Z,18.50
2022-10-18T10:51:07.948Z,19.08
2022-10-18T10:53:45.260Z,16.95
2022-10-18T10:56:22.142Z,16.00
2022-10-18T10:58:50.082Z,19.23
2022-10-18T11:01:20.259Z,19.60
2022-10-18T11:03:49.530Z,17.27
2022-10-18T11:06:44.396Z,16.45
2022-10-18T11:09:22.987Z,16.83
2022-10-18T11:12:00.528Z,15.85
2022-10-18T11:14:31.791Z,16.73
2022-10-18T11:17:08.070Z,16.67
2022-10-18T11:19:43.694Z,15.27
2022-10-18T11:22:17.452Z,16.83
2022-10-18T11:24:45.166Z,12.82
2022-10-18T11:27:20.570Z,12.90
2022-10-18T11:29:59.852Z,11.70
2022-10-18T11:32:35.473Z,11.25
2022-10-18T11:35:20.653Z,12.65
2022-10-18T11:38:05.421Z,11.32
2022-10-18T11:40:43.504Z,18.77
2022-10-18T11:43:18.272Z,6.68
2022-10-18T11:45:55.655Z,10.63
2022-10-18T11:48:41.428Z,7.30
2022-10-18T11:51:16.387Z,8.05
2022-10-18T11:54:00.768Z,8.38
2022-10-18T11:56:38.241Z,8.52
2022-10-18T11:59:23.039Z,7.45
2022-10-18T12:02:03.998Z,17.05
2022-10-18T12:04:45.026Z,23.83
2022-10-18T12:07:28.941Z,10.27
2022-10-18T12:10:02.421Z,8.90
2022-10-18T12:12:33.830Z,11.00
2022-10-18T12:15:05.163Z,11.50
2022-10-18T12:17:46.184Z,7.95
2022-10-18T12:20:20.421Z,13.63
2022-10-18T12:22:56.101Z,8.32
2022-10-18T12:25:25.973Z,13.15
2022-10-18T12:30:40.094Z,17.17
2022-10-18T12:33:27.889Z,11.98
2022-10-18T12:36:07.122Z,9.80
2022-10-18T12:38:38.772Z,7.28
2022-10-18T12:41:07.861Z,17.45
2022-10-18T12:43:37.587Z,18.83
2022-10-18T12:46:12.231Z,23.85
2022-10-18T12:48:43.672Z,15.00
2022-10-18T12:51:16.084Z,19.33
2022-10-18T12:53:45.853Z,12.30
2022-10-18T12:56:42.683Z,9.02
2022-10-18T12:59:51.819Z,9.93
2022-10-18T13:02:28.917Z,6.45
2022-10-18T13:05:00.711Z,13.68
2022-10-18T13:07:43.284Z,6.85
2022-10-18T13:10:36.834Z,13.07
2022-10-18T13:13:40.626Z,5.82
2022-10-18T13:16:31.251Z,7.43
2022-10-18T13:19:03.247Z,10.35
2022-10-18T13:21:44.440Z,7.55
2022-10-18T13:24:24.194Z,8.48
2022-10-18T13:27:31.100Z,7.22
2022-10-18T13:30:12.629Z,8.23
2022-10-18T13:32:50.717Z,6.85
2022-10-18T13:35:44.983Z,6.30
2022-10-18T13:38:33.152Z,6.88
2022-10-18T13:41:03.030Z,6.72
2022-10-18T13:44:21.279Z,6.60
2022-10-18T13:50:31.758Z,6.90
2022-10-18T13:53:39.237Z,6.78
2022-10-18T13:56:24.129Z,5.63
2022-10-18T13:59:14.037Z,7.20
2022-10-18T14:01:54.518Z,5.50
2022-10-18T14:04:41.506Z,10.57
2022-10-18T14:07:12.647Z,6.45
2022-10-18T14:09:48.888Z,6.78
2022-10-18T14:12:27.391Z,6.30
2022-10-18T14:15:03.111Z,5.00
2022-10-18T14:17:37.064Z,6.57
2022-10-18T14:20:18.191Z,5.38
2022-10-18T14:22:50.624Z,4.95
2022-10-18T14:25:23.898Z,7.75
2022-10-18T14:28:11.389Z,5.30
2022-10-18T14:30:53.583Z,7.10
2022-10-18T14:33:34.501Z,6.85
2022-10-18T14:36:08.078Z,6.35
2022-10-18T14:38:47.652Z,5.72
2022-10-18T14:41:17.576Z,8.32
2022-10-18T14:43:46.503Z,13.15
2022-10-18T14:46:25.888Z,7.70
2022-10-18T14:48:55.071Z,10.18
2022-10-18T14:51:22.987Z,7.85
2022-10-18T14:53:52.571Z,15.18
2022-10-18T14:56:24.228Z,10.13
2022-10-18T14:58:53.294Z,9.60
2022-10-18T15:01:25.254Z,7.97
2022-10-18T15:03:57.181Z,11.27
2022-10-18T15:06:24.896Z,13.25
2022-10-18T15:08:57.239Z,9.07
2022-10-18T15:11:26.293Z,8.77
2022-10-18T15:13:56.175Z,8.60
2022-10-18T15:16:27.006Z,8.25
2022-10-18T15:19:03.083Z,8.18
2022-10-18T15:21:31.028Z,8.07
2022-10-18T15:24:21.769Z,10.18
2022-10-18T15:26:51.114Z,8.10
2022-10-18T15:29:20.517Z,9.95
2022-10-18T15:31:50.294Z,10.35
2022-10-18T15:34:21.368Z,8.90
2022-10-18T15:36:50.203Z,8.88
2022-10-18T15:39:20.242Z,11.05
2022-10-18T15:41:51.540Z,9.77
2022-10-18T15:44:25.534Z,9.75
2022-10-18T15:46:56.364Z,11.73
2022-10-18T15:50:00.474Z,12.32
2022-10-18T15:52:45.760Z,13.38
2022-10-18T15:55:56.498Z,13.10
2022-10-18T15:58:27.578Z,15.25
2022-10-18T16:00:58.571Z,16.73
2022-10-18T16:03:26.603Z,16.23
2022-10-18T16:06:00.514Z,16.45
2022-10-18T16:08:30.448Z,16.27
2022-10-18T16:10:58.687Z,15.27
2022-10-18T16:13:27.852Z,13.35
2022-10-18T16:15:56.591Z,18.50
2022-10-18T16:18:25.628Z,18.67
2022-10-18T16:20:53.900Z,20.30
2022-10-18T16:23:23.647Z,15.52
2022-10-18T16:25:52.078Z,18.63
2022-10-18T16:28:21.329Z,18.90
2022-10-18T16:30:55.396Z,28.30
2022-10-18T16:33:22.975Z,29.92
2022-10-18T16:35:50.844Z,30.90
2022-10-18T16:38:32.627Z,34.20
2022-10-18T16:41:02.363Z,34.75
2022-10-18T16:43:29.908Z,41.42
2022-10-18T16:45:58.766Z,27.83
2022-10-18T16:48:26.534Z,29.85
2022-10-18T16:50:55.697Z,27.83
2022-10-18T16:53:24.951Z,27.60
2022-10-18T16:55:54.739Z,28.48
2022-10-18T17:00:56.299Z,32.20
2022-10-18T17:03:25.611Z,36.28
2022-10-18T17:05:54.127Z,50.83
2022-10-18T17:08:23.829Z,32.65
2022-10-18T17:10:53.409Z,36.70
2022-10-18T17:13:21.912Z,63.42
2022-10-18T17:15:49.459Z,66.38
2022-10-18T17:18:21.649Z,86.78
2022-10-18T17:20:51.063Z,71.53
2022-10-18T17:23:18.739Z,69.95
2022-10-18T17:25:57.750Z,93.47
2022-10-18T17:28:34.053Z,68.88
2022-10-18T17:31:01.626Z,96.72
2022-10-18T17:33:29.125Z,52.33
2022-10-18T17:35:58.004Z,73.68
2022-10-18T17:38:25.597Z,81.65
2022-10-18T17:40:54.377Z,80.32
2022-10-18T17:43:21.912Z,55.92
2022-10-18T17:45:50.847Z,41.72
2022-10-18T17:48:18.690Z,43.60
2022-10-18T17:50:46.266Z,43.13
2022-10-18T17:53:16.564Z,44.75
2022-10-18T17:55:44.093Z,53.13
2022-10-18T17:58:11.594Z,57.40
2022-10-18T18:00:39.124Z,37.25
2022-10-18T18:03:06.686Z,29.40
2022-10-18T18:05:35.377Z,24.83
2022-10-18T18:08:04.073Z,25.35
2022-10-18T18:10:34.500Z,26.13
2022-10-18T18:13:02.197Z,23.58
2022-10-18T18:15:29.716Z,42.78
2022-10-18T18:17:58.208Z,15.18
2022-10-18T18:20:26.523Z,23.60
2022-10-18T18:22:54.200Z,44.05
2022-10-18T18:25:21.752Z,20.67
2022-10-18T18:27:50.617Z,40.22
2022-10-18T18:30:18.291Z,71.13
2022-10-18T18:32:45.918Z,31.75
2022-10-18T18:35:13.643Z,22.73
2022-10-18T18:37:41.155Z,51.65
2022-10-18T18:40:09.695Z,58.90
2022-10-18T18:42:37.207Z,95.63
2022-10-18T18:45:07.076Z,76.03
2022-10-18T18:47:35.488Z,74.25
2022-10-18T18:50:03.183Z,69.35
2022-10-18T18:52:31.064Z,81.75
2022-10-18T18:54:58.756Z,86.28
2022-10-18T18:57:26.347Z,79.88
2022-10-18T18:59:53.891Z,86.15
2022-10-18T19:02:22.773Z,93.53
2022-10-18T19:04:50.719Z,81.85
2022-10-18T19:07:18.302Z,75.38
2022-10-18T19:09:46.997Z,74.00
2022-10-18T19:12:16.455Z,74.82
2022-10-18T19:14:46.970Z,69.68
2022-10-18T19:17:14.518Z,67.93
2022-10-18T19:19:43.506Z,62.08
2022-10-18T19:22:11.105Z,54.28
2022-10-18T19:24:38.613Z,50.10
2022-10-18T19:27:09.598Z,61.72
2022-10-18T19:29:38.695Z,56.08
2022-10-18T19:32:08.435Z,61.85
2022-10-18T19:34:36.418Z,66.95
2022-10-18T19:37:05.311Z,59.28
2022-10-18T19:39:34.981Z,45.63
2022-10-18T19:42:04.755Z,49.33
2022-10-18T19:44:34.108Z,46.75
2022-10-18T19:47:01.659Z,62.45
2022-10-18T19:49:29.676Z,86.47
2022-10-18T19:51:57.626Z,83.00
2022-10-18T19:54:27.101Z,75.43
2022-10-18T19:56:54.840Z,62.97
2022-10-18T19:59:23.140Z,50.47
2022-10-18T20:01:50.730Z,47.38
2022-10-18T20:04:18.363Z,65.10
2022-10-18T20:06:46.358Z,66.40
2022-10-18T20:09:19.338Z,70.13
2022-10-18T20:11:49.693Z,67.82
2022-10-18T20:14:17.263Z,81.40
2022-10-18T20:16:44.892Z,54.22
2022-10-18T20:19:12.465Z,65.82
2022-10-18T20:21:40.190Z,74.85
2022-10-18T20:24:09.259Z,59.95
2022-10-18T20:26:36.995Z,67.70
2022-10-18T20:29:07.433Z,57.20
2022-10-18T20:31:38.865Z,49.05
2022-10-18T20:34:08.577Z,57.22
2022-10-18T20:36:36.600Z,43.13
2022-10-18T20:39:05.183Z,55.88
2022-10-18T20:41:34.658Z,69.85
2022-10-18T20:44:04.016Z,64.43
2022-10-18T20:46:34.518Z,62.15
2022-10-18T20:49:02.139Z,64.40
2022-10-18T20:51:29.796Z,54.40
2022-10-18T20:53:57.674Z,61.45
2022-10-18T20:56:27.183Z,54.08
2022-10-18T20:58:56.609Z,57.63
2022-10-18T21:01:26.041Z,51.00
2022-10-18T21:03:57.393Z,70.20
2022-10-18T21:06:26.493Z,88.85
2022-10-18T21:08:55.481Z,46.47
2022-10-18T21:11:23.902Z,46.92
2022-10-18T21:13:52.396Z,36.00
2022-10-18T21:16:20.441Z,32.65
2022-10-18T21:18:48.583Z,33.95
2022-10-18T21:21:19.838Z,35.53
2022-10-18T21:23:48.125Z,44.08
2022-10-18T21:26:17.007Z,23.80
2022-10-18T21:28:44.877Z,49.03
2022-10-18T21:31:14.530Z,102.78
2022-10-18T21:33:42.364Z,184.05
2022-10-18T21:36:10.075Z,178.40
2022-10-18T21:38:39.440Z,169.45
2022-10-18T21:41:11.476Z,125.78
2022-10-18T21:43:41.735Z,154.50
2022-10-18T21:46:10.902Z,156.50
2022-10-18T21:48:39.287Z,137.63
2022-10-18T21:51:08.940Z,183.80
2022-10-18T21:53:37.145Z,104.78
2022-10-18T21:56:08.395Z,106.15
2022-10-18T21:58:36.376Z,127.93
2022-10-18T22:01:08.406Z,94.75
2022-10-18T22:03:36.003Z,78.70
2022-10-18T22:06:07.537Z,77.85
2022-10-18T22:08:35.840Z,61.80
2022-10-18T22:11:04.185Z,44.40
2022-10-18T22:13:33.142Z,66.72
2022-10-18T22:16:02.352Z,55.22
2022-10-18T22:18:30.652Z,68.13
2022-10-18T22:21:00.185Z,62.88
2022-10-18T22:23:32.313Z,66.55
2022-10-18T22:26:03.658Z,35.25
2022-10-18T22:28:31.235Z,57.78
2022-10-18T22:31:00.125Z,47.28
2022-10-18T22:33:28.109Z,41.95
2022-10-18T22:35:55.646Z,47.75
2022-10-18T22:38:23.191Z,51.17
2022-10-18T22:40:51.741Z,63.00
2022-10-18T22:43:19.692Z,47.95
2022-10-18T22:45:47.210Z,71.45
2022-10-18T22:48:16.073Z,73.95
2022-10-18T22:50:43.566Z,74.25
2022-10-18T22:53:11.082Z,71.15
2022-10-18T22:55:38.609Z,64.82
2022-10-18T22:58:06.106Z,92.50
2022-10-18T23:00:33.681Z,75.20
2022-10-18T23:03:01.313Z,54.75
2022-10-18T23:05:30.176Z,71.43
2022-10-18T23:07:57.663Z,53.90
2022-10-18T23:10:25.166Z,56.47
2022-10-18T23:12:52.641Z,485.27
2022-10-18T23:15:20.151Z,499.98
2022-10-18T23:17:49.869Z,44.47
2022-10-18T23:20:17.505Z,45.97
2022-10-18T23:22:46.381Z,37.58
2022-10-18T23:25:14.044Z,32.13
2022-10-18T23:30:14.222Z,43.80
2022-10-18T23:32:41.725Z,52.60
2022-10-18T23:35:10.344Z,41.47
2022-10-18T23:37:37.987Z,43.47
2022-10-18T23:40:08.411Z,44.45
2022-10-18T23:42:35.966Z,65.25
2022-10-18T23:45:03.549Z,54.25
2022-10-18T23:47:31.357Z,47.67
2022-10-18T23:49:59.094Z,48.63
2022-10-18T23:52:26.604Z,37.28
2022-10-18T23:54:54.114Z,47.17
2022-10-18T23:57:22.972Z,47.35
2022-10-18T23:59:50.467Z,47.40
